createdAt,value
2018-05-24T00:00:11.809Z,12.47
2018-05-24T00:02:41.033Z,13.13
2018-05-24T00:05:09.204Z,12.17
2018-05-24T00:07:37.303Z,13.13
2018-05-24T00:10:05.671Z,11.70
2018-05-24T00:12:33.834Z,11.47
2018-05-24T00:15:02.271Z,10.87
2018-05-24T00:17:30.794Z,11.97
2018-05-24T00:19:59.557Z,11.07
2018-05-24T00:22:27.613Z,11.07
2018-05-24T00:24:55.947Z,11.93
2018-05-24T00:27:25.253Z,13.17
2018-05-24T00:29:54.404Z,10.13
2018-05-24T00:32:22.749Z,8.67
2018-05-24T00:34:51.866Z,10.30
2018-05-24T00:37:21.281Z,8.40
2018-05-24T00:39:49.815Z,8.80
2018-05-24T00:42:18.431Z,8.87
2018-05-24T00:44:47.480Z,10.13
2018-05-24T00:47:16.342Z,9.13
2018-05-24T00:49:44.785Z,10.73
2018-05-24T00:52:13.835Z,9.00
2018-05-24T00:54:42.076Z,8.03
2018-05-24T00:57:10.545Z,8.33
2018-05-24T00:59:39.160Z,9.30
2018-05-24T01:02:07.558Z,8.10
2018-05-24T01:04:35.854Z,12.13
2018-05-24T01:07:03.953Z,7.63
2018-05-24T01:09:32.943Z,8.43
2018-05-24T01:12:01.408Z,8.03
2018-05-24T01:14:30.571Z,10.30
2018-05-24T01:16:58.863Z,9.27
2018-05-24T01:19:29.089Z,10.20
2018-05-24T01:21:57.714Z,10.00
2018-05-24T01:24:26.007Z,9.30
2018-05-24T01:26:54.626Z,8.73
2018-05-24T01:29:22.996Z,9.83
2018-05-24T01:31:51.071Z,7.87
2018-05-24T01:34:19.439Z,10.83
2018-05-24T01:36:57.763Z,7.87
2018-05-24T01:39:26.285Z,9.40
2018-05-24T01:41:54.408Z,7.20
2018-05-24T01:44:22.560Z,6.87
2018-05-24T01:46:50.652Z,6.77
2018-05-24T01:49:19.904Z,7.00
2018-05-24T01:51:48.277Z,9.30
2018-05-24T01:54:16.538Z,11.23
2018-05-24T01:56:44.878Z,8.23
2018-05-24T01:59:13.541Z,10.07
2018-05-24T02:01:42.106Z,9.23
2018-05-24T02:04:10.146Z,7.13
2018-05-24T02:06:38.480Z,8.57
2018-05-24T02:09:06.886Z,9.00
2018-05-24T02:11:35.203Z,7.23
2018-05-24T02:14:04.773Z,8.87
2018-05-24T02:16:33.856Z,9.90
2018-05-24T02:19:02.467Z,13.73
2018-05-24T02:21:32.284Z,9.43
2018-05-24T02:24:00.423Z,7.50
2018-05-24T02:26:28.649Z,9.50
2018-05-24T02:28:57.851Z,12.43
2018-05-24T02:31:26.308Z,11.47
2018-05-24T02:33:55.652Z,12.20
2018-05-24T02:36:24.081Z,12.07
2018-05-24T02:38:53.304Z,13.37
2018-05-24T02:41:22.250Z,14.37
2018-05-24T02:43:50.749Z,12.50
2018-05-24T02:46:18.965Z,12.80
2018-05-24T02:48:47.813Z,12.43
2018-05-24T02:51:16.453Z,11.50
2018-05-24T02:53:44.777Z,10.97
2018-05-24T02:56:13.739Z,11.37
2018-05-24T02:58:42.484Z,10.63
2018-05-24T03:01:11.239Z,11.10
2018-05-24T03:03:39.617Z,14.53
2018-05-24T03:06:08.456Z,13.83
2018-05-24T03:08:36.938Z,17.07
2018-05-24T03:11:05.125Z,12.50
2018-05-24T03:13:33.744Z,11.33
2018-05-24T03:16:01.867Z,12.57
2018-05-24T03:18:30.436Z,12.50
2018-05-24T03:20:58.839Z,11.20
2018-05-24T03:23:28.637Z,11.03
2018-05-24T03:25:56.853Z,11.03
2018-05-24T03:28:24.907Z,11.13
2018-05-24T03:30:53.204Z,12.20
2018-05-24T03:33:21.885Z,14.80
2018-05-24T03:35:50.157Z,10.50
2018-05-24T03:38:20.683Z,9.77
2018-05-24T03:40:49.153Z,11.40
2018-05-24T03:43:17.893Z,13.60
2018-05-24T03:45:46.397Z,11.57
2018-05-24T03:48:14.548Z,10.17
2018-05-24T03:50:42.979Z,13.73
2018-05-24T03:53:13.083Z,10.73
2018-05-24T03:55:42.176Z,12.73
2018-05-24T03:58:10.865Z,10.10
2018-05-24T04:00:50.484Z,10.67
2018-05-24T04:03:50.915Z,9.77
2018-05-24T04:06:19.280Z,12.57
2018-05-24T04:08:47.468Z,10.87
2018-05-24T04:11:16.986Z,10.17
2018-05-24T04:13:45.101Z,10.70
2018-05-24T04:16:14.172Z,12.90
2018-05-24T04:18:42.581Z,13.53
2018-05-24T04:21:11.918Z,10.17
2018-05-24T04:23:41.629Z,12.70
2018-05-24T04:26:10.219Z,10.57
2018-05-24T04:28:38.418Z,10.23
2018-05-24T04:31:06.619Z,10.50
2018-05-24T04:33:35.413Z,7.37
2018-05-24T04:36:04.526Z,8.53
2018-05-24T04:38:33.437Z,8.13
2018-05-24T04:41:02.058Z,7.73
2018-05-24T04:43:31.074Z,10.53
2018-05-24T04:45:59.214Z,10.30
2018-05-24T04:48:27.972Z,8.73
2018-05-24T04:50:56.957Z,9.13
2018-05-24T04:53:25.786Z,8.93
2018-05-24T04:55:55.015Z,10.13
2018-05-24T04:58:24.258Z,13.53
2018-05-24T05:00:52.859Z,8.80
2018-05-24T05:03:21.556Z,9.00
2018-05-24T05:05:50.259Z,9.97
2018-05-24T05:08:19.301Z,10.27
2018-05-24T05:10:47.819Z,11.23
2018-05-24T05:13:15.910Z,10.37
2018-05-24T05:15:44.334Z,8.57
2018-05-24T05:18:14.048Z,10.43
2018-05-24T05:20:42.070Z,9.67
2018-05-24T05:23:11.282Z,13.77
2018-05-24T05:25:40.098Z,11.07
2018-05-24T05:28:08.347Z,13.23
2018-05-24T05:30:37.497Z,12.67
2018-05-24T05:33:06.230Z,9.93
2018-05-24T05:35:34.687Z,11.63
2018-05-24T05:38:02.786Z,10.43
2018-05-24T05:40:30.970Z,11.10
2018-05-24T05:42:59.643Z,31.00
2018-05-24T05:45:28.637Z,21.13
2018-05-24T05:47:57.053Z,24.60
2018-05-24T05:50:25.162Z,12.57
2018-05-24T05:52:54.107Z,11.40
2018-05-24T05:55:22.990Z,10.13
2018-05-24T05:57:51.304Z,9.80
2018-05-24T06:00:20.385Z,8.40
2018-05-24T06:02:48.927Z,7.43
2018-05-24T06:05:17.056Z,9.23
2018-05-24T06:07:46.057Z,7.43
2018-05-24T06:10:14.978Z,7.20
2018-05-24T06:12:43.270Z,10.57
2018-05-24T06:15:11.641Z,10.83
2018-05-24T06:17:40.497Z,13.67
2018-05-24T06:20:09.842Z,15.90
2018-05-24T06:22:38.089Z,8.50
2018-05-24T06:25:06.238Z,10.87
2018-05-24T06:27:36.741Z,12.37
2018-05-24T06:30:05.010Z,8.10
2018-05-24T06:32:33.118Z,7.97
2018-05-24T06:35:02.277Z,7.87
2018-05-24T06:37:30.516Z,11.80
2018-05-24T06:39:58.880Z,9.87
2018-05-24T06:42:29.249Z,9.23
2018-05-24T06:44:57.451Z,10.47
2018-05-24T06:47:26.513Z,26.07
2018-05-24T06:49:54.574Z,10.93
2018-05-24T06:52:22.770Z,9.17
2018-05-24T06:54:51.716Z,9.47
2018-05-24T06:57:19.854Z,11.03
2018-05-24T06:59:48.788Z,8.40
2018-05-24T07:02:16.932Z,11.07
2018-05-24T07:04:46.407Z,10.20
2018-05-24T07:07:14.670Z,9.80
2018-05-24T07:09:42.738Z,11.83
2018-05-24T07:12:11.360Z,8.83
2018-05-24T07:14:40.665Z,7.07
2018-05-24T07:17:08.730Z,10.57
2018-05-24T07:19:38.284Z,8.00
2018-05-24T07:22:06.610Z,9.30
2018-05-24T07:24:35.465Z,7.07
2018-05-24T07:27:04.619Z,9.10
2018-05-24T07:29:35.590Z,8.17
2018-05-24T07:32:03.701Z,9.37
2018-05-24T07:34:33.089Z,10.87
2018-05-24T07:37:01.337Z,10.13
2018-05-24T07:39:29.884Z,7.57
2018-05-24T07:41:58.010Z,8.87
2018-05-24T07:44:26.208Z,9.10
2018-05-24T07:46:55.130Z,11.17
2018-05-24T07:49:23.454Z,9.27
2018-05-24T07:51:52.418Z,8.70
2018-05-24T07:54:20.518Z,10.27
2018-05-24T07:56:48.598Z,11.30
2018-05-24T07:59:17.880Z,12.40
2018-05-24T08:01:46.053Z,8.17
2018-05-24T08:04:14.902Z,10.03
2018-05-24T08:06:44.555Z,11.60
2018-05-24T08:09:13.590Z,10.70
2018-05-24T08:11:42.125Z,13.90
2018-05-24T08:14:10.440Z,11.43
2018-05-24T08:16:38.673Z,12.00
2018-05-24T08:19:07.170Z,12.33
2018-05-24T08:21:35.458Z,10.80
2018-05-24T08:24:04.556Z,9.90
2018-05-24T08:26:33.859Z,9.73
2018-05-24T08:29:02.921Z,10.30
2018-05-24T08:31:33.850Z,9.57
2018-05-24T08:34:02.863Z,9.80
2018-05-24T08:36:31.222Z,10.30
2018-05-24T08:38:59.288Z,10.77
2018-05-24T08:41:27.608Z,11.07
2018-05-24T08:43:56.559Z,13.63
2018-05-24T08:46:24.883Z,11.50
2018-05-24T08:48:54.208Z,12.70
2018-05-24T08:51:22.922Z,13.43
2018-05-24T08:53:52.422Z,9.70
2018-05-24T08:56:20.767Z,12.13
2018-05-24T08:58:50.156Z,12.80
2018-05-24T09:01:18.592Z,11.50
2018-05-24T09:03:46.653Z,10.20
2018-05-24T09:06:20.392Z,13.17
2018-05-24T09:08:48.564Z,13.27
2018-05-24T09:11:17.026Z,11.20
2018-05-24T09:13:45.513Z,10.70
2018-05-24T09:16:14.317Z,13.53
2018-05-24T09:18:43.077Z,12.70
2018-05-24T09:21:11.235Z,13.80
2018-05-24T09:23:39.438Z,13.13
2018-05-24T09:26:07.935Z,10.87
2018-05-24T09:28:36.783Z,11.30
2018-05-24T09:31:05.671Z,11.10
2018-05-24T09:33:34.619Z,13.60
2018-05-24T09:36:04.134Z,13.43
2018-05-24T09:38:33.161Z,10.17
2018-05-24T09:41:02.152Z,10.23
2018-05-24T09:43:30.717Z,9.83
2018-05-24T09:45:59.679Z,10.90
2018-05-24T09:48:28.785Z,13.00
2018-05-24T09:50:57.233Z,13.13
2018-05-24T09:53:25.544Z,13.13
2018-05-24T09:55:54.020Z,14.23
2018-05-24T09:58:22.722Z,12.57
2018-05-24T10:00:51.230Z,12.80
2018-05-24T10:03:19.400Z,13.87
2018-05-24T10:05:48.768Z,11.67
2018-05-24T10:08:17.689Z,13.00
2018-05-24T10:10:46.652Z,14.73
2018-05-24T10:13:15.875Z,10.97
2018-05-24T10:15:44.735Z,11.60
2018-05-24T10:18:14.070Z,11.57
2018-05-24T10:20:43.230Z,9.93
2018-05-24T10:23:12.002Z,16.00
2018-05-24T10:25:40.509Z,9.70
2018-05-24T10:28:08.790Z,9.93
2018-05-24T10:30:37.470Z,10.53
2018-05-24T10:33:07.879Z,9.73
2018-05-24T10:35:38.489Z,9.90
2018-05-24T10:38:07.657Z,9.10
2018-05-24T10:40:36.770Z,12.67
2018-05-24T10:43:06.128Z,9.33
2018-05-24T10:45:35.629Z,9.43
2018-05-24T10:48:04.731Z,11.13
2018-05-24T10:50:32.834Z,11.30
2018-05-24T10:53:00.957Z,14.67
2018-05-24T10:55:29.069Z,10.00
2018-05-24T10:57:58.573Z,11.13
2018-05-24T11:00:26.644Z,11.10
2018-05-24T11:02:54.956Z,9.77
2018-05-24T11:05:23.521Z,11.13
2018-05-24T11:07:52.179Z,13.13
2018-05-24T11:10:22.586Z,9.40
2018-05-24T11:12:51.235Z,9.47
2018-05-24T11:15:19.612Z,11.37
2018-05-24T11:17:48.908Z,11.27
2018-05-24T11:20:18.347Z,9.50
2018-05-24T11:22:48.111Z,11.30
2018-05-24T11:25:17.971Z,10.03
2018-05-24T11:27:46.999Z,9.57
2018-05-24T11:30:15.558Z,10.57
2018-05-24T11:32:44.908Z,9.93
2018-05-24T11:35:16.102Z,10.57
2018-05-24T11:37:45.212Z,10.63
2018-05-24T11:40:13.916Z,10.73
2018-05-24T11:42:42.426Z,13.30
2018-05-24T11:45:10.905Z,12.20
2018-05-24T11:47:39.387Z,11.10
2018-05-24T11:50:08.030Z,10.90
2018-05-24T11:52:36.708Z,11.13
2018-05-24T11:55:05.035Z,14.43
2018-05-24T11:57:33.284Z,12.40
2018-05-24T12:00:01.376Z,10.60
2018-05-24T12:02:29.468Z,10.67
2018-05-24T12:04:58.228Z,10.93
2018-05-24T12:07:26.856Z,12.53
2018-05-24T12:09:55.008Z,10.83
2018-05-24T12:12:24.306Z,11.17
2018-05-24T12:14:52.467Z,11.80
2018-05-24T12:17:22.392Z,11.13
2018-05-24T12:19:52.136Z,11.07
2018-05-24T12:22:20.917Z,11.20
2018-05-24T12:24:49.118Z,13.07
2018-05-24T12:27:17.285Z,10.83
2018-05-24T12:29:45.343Z,11.00
2018-05-24T12:32:13.848Z,11.00
2018-05-24T12:34:42.607Z,12.53
2018-05-24T12:37:10.814Z,11.17
2018-05-24T12:39:39.296Z,10.47
2018-05-24T12:42:08.121Z,9.77
2018-05-24T12:44:36.530Z,12.40
2018-05-24T12:47:04.865Z,11.47
2018-05-24T12:49:34.893Z,10.67
2018-05-24T12:52:03.151Z,10.10
2018-05-24T12:54:31.944Z,10.50
2018-05-24T12:57:00.246Z,10.87
2018-05-24T12:59:28.453Z,12.47
2018-05-24T13:01:57.327Z,10.47
2018-05-24T13:04:26.405Z,9.27
2018-05-24T13:06:54.784Z,8.60
2018-05-24T13:09:23.793Z,7.33
2018-05-24T13:11:52.013Z,7.47
2018-05-24T13:14:20.080Z,7.00
2018-05-24T13:16:48.893Z,7.77
2018-05-24T13:19:17.102Z,7.43
2018-05-24T13:21:45.270Z,8.57
2018-05-24T13:24:13.465Z,8.00
2018-05-24T13:26:42.081Z,8.97
2018-05-24T13:29:11.091Z,9.23
2018-05-24T13:31:39.967Z,12.13
2018-05-24T13:34:08.905Z,10.70
2018-05-24T13:36:37.125Z,9.83
2018-05-24T13:39:06.377Z,10.47
2018-05-24T13:41:35.218Z,11.10
2018-05-24T13:44:03.995Z,10.20
2018-05-24T13:46:32.255Z,12.37
2018-05-24T13:49:00.290Z,11.37
2018-05-24T13:51:28.444Z,9.03
2018-05-24T13:53:57.138Z,8.43
2018-05-24T13:56:25.628Z,8.33
2018-05-24T13:58:54.022Z,8.67
2018-05-24T14:01:22.388Z,6.90
2018-05-24T14:03:50.440Z,7.90
2018-05-24T14:06:19.539Z,7.10
2018-05-24T14:08:47.687Z,8.30
2018-05-24T14:11:16.686Z,6.67
2018-05-24T14:13:45.638Z,7.07
2018-05-24T14:16:15.463Z,6.97
2018-05-24T14:18:44.107Z,10.13
2018-05-24T14:21:12.553Z,10.27
2018-05-24T14:23:41.574Z,10.80
2018-05-24T14:26:09.955Z,10.57
2018-05-24T14:28:38.173Z,10.83
2018-05-24T14:31:06.278Z,11.20
2018-05-24T14:33:34.473Z,11.47
2018-05-24T14:36:02.429Z,9.63
2018-05-24T14:38:30.713Z,10.63
2018-05-24T14:40:59.688Z,11.83
2018-05-24T14:43:27.842Z,12.13
2018-05-24T14:45:56.908Z,12.83
2018-05-24T14:48:25.323Z,10.93
2018-05-24T14:50:54.258Z,10.13
2018-05-24T14:53:22.542Z,9.93
2018-05-24T14:55:50.844Z,9.40
2018-05-24T15:01:52.286Z,10.70
2018-05-24T15:04:20.391Z,13.23
2018-05-24T15:06:48.585Z,17.27
2018-05-24T15:09:17.265Z,20.43
2018-05-24T15:11:46.077Z,15.43
2018-05-24T15:14:14.423Z,13.43
2018-05-24T15:16:43.450Z,13.10
2018-05-24T15:19:14.032Z,13.63
2018-05-24T15:21:42.208Z,14.10
2018-05-24T15:24:11.068Z,13.60
2018-05-24T15:26:39.820Z,18.67
2018-05-24T15:29:08.164Z,13.17
2018-05-24T15:31:37.107Z,13.20
2018-05-24T15:34:05.544Z,14.23
2018-05-24T15:36:34.340Z,15.73
2018-05-24T15:39:02.793Z,14.67
2018-05-24T15:41:31.390Z,13.83
2018-05-24T15:44:00.367Z,13.90
2018-05-24T15:46:30.781Z,13.20
2018-05-24T15:48:59.145Z,13.83
2018-05-24T15:51:27.690Z,15.40
2018-05-24T15:53:57.099Z,15.07
2018-05-24T15:56:25.354Z,16.80
2018-05-24T15:58:54.479Z,17.83
2018-05-24T16:01:23.400Z,16.13
2018-05-24T16:03:51.768Z,17.27
2018-05-24T16:06:19.995Z,19.73
2018-05-24T16:08:48.527Z,10.13
2018-05-24T16:11:17.112Z,7.10
2018-05-24T16:13:47.366Z,7.03
2018-05-24T16:16:15.458Z,8.47
2018-05-24T16:18:43.619Z,7.20
2018-05-24T16:21:13.217Z,7.10
2018-05-24T16:23:41.508Z,6.93
2018-05-24T16:26:09.625Z,6.90
2018-05-24T16:28:37.628Z,8.17
2018-05-24T16:31:05.979Z,9.20
2018-05-24T16:33:34.125Z,13.73
2018-05-24T16:36:02.187Z,20.27
2018-05-24T16:38:30.560Z,22.13
2018-05-24T16:40:59.360Z,22.90
2018-05-24T16:43:27.536Z,23.97
2018-05-24T16:45:56.607Z,24.77
2018-05-24T16:48:25.619Z,25.97
2018-05-24T16:50:55.366Z,25.07
2018-05-24T16:53:24.554Z,25.47
2018-05-24T16:55:52.860Z,28.10
2018-05-24T16:58:21.521Z,27.03
2018-05-24T17:00:49.923Z,26.53
2018-05-24T17:03:18.932Z,23.00
2018-05-24T17:05:47.272Z,23.83
2018-05-24T17:08:15.425Z,22.57
2018-05-24T17:10:43.833Z,24.33
2018-05-24T17:13:11.980Z,24.47
2018-05-24T17:15:40.442Z,22.83
2018-05-24T17:18:08.902Z,23.70
2018-05-24T17:20:38.107Z,22.53
2018-05-24T17:23:07.183Z,21.70
2018-05-24T17:25:35.435Z,24.63
2018-05-24T17:28:04.368Z,17.03
2018-05-24T17:30:35.316Z,20.40
2018-05-24T17:33:10.107Z,16.50
2018-05-24T17:35:38.795Z,15.30
2018-05-24T17:38:09.069Z,13.90
2018-05-24T17:40:37.936Z,14.03
2018-05-24T17:43:06.956Z,14.10
2018-05-24T17:45:35.487Z,13.87
2018-05-24T17:48:05.612Z,14.73
2018-05-24T17:50:34.045Z,13.37
2018-05-24T17:53:02.501Z,14.33
2018-05-24T17:55:30.870Z,16.10
2018-05-24T17:57:59.678Z,13.33
2018-05-24T18:00:27.842Z,14.43
2018-05-24T18:02:56.538Z,14.33
2018-05-24T18:05:25.078Z,14.30
2018-05-24T18:07:54.201Z,17.27
2018-05-24T18:10:22.758Z,14.80
2018-05-24T18:12:56.127Z,15.33
2018-05-24T18:15:24.601Z,14.53
2018-05-24T18:17:53.097Z,17.77
2018-05-24T18:20:21.806Z,17.87
2018-05-24T18:23:54.881Z,18.17
2018-05-24T18:26:23.828Z,16.80
2018-05-24T18:28:51.982Z,17.37
2018-05-24T18:34:40.940Z,19.63
2018-05-24T18:37:10.231Z,20.17
2018-05-24T18:39:39.274Z,19.37
2018-05-24T18:42:08.350Z,20.03
2018-05-24T18:44:40.610Z,20.10
2018-05-24T18:47:10.868Z,20.63
2018-05-24T18:49:40.255Z,21.47
2018-05-24T18:52:08.434Z,20.93
2018-05-24T18:54:36.922Z,21.53
2018-05-24T18:57:06.065Z,21.87
2018-05-24T18:59:34.615Z,20.03
2018-05-24T19:02:03.904Z,23.07
2018-05-24T19:04:35.461Z,21.47
2018-05-24T19:07:05.302Z,20.30
2018-05-24T19:09:34.602Z,21.03
2018-05-24T19:12:03.949Z,20.97
2018-05-24T19:14:34.333Z,20.43
2018-05-24T19:17:03.057Z,19.17
2018-05-24T19:19:33.499Z,20.43
2018-05-24T19:22:02.377Z,20.77
2018-05-24T19:24:30.659Z,20.33
2018-05-24T19:27:03.699Z,21.03
2018-05-24T19:29:33.350Z,19.77
2018-05-24T19:32:01.500Z,19.87
2018-05-24T19:34:30.801Z,19.30
2018-05-24T19:36:59.833Z,18.57
2018-05-24T19:39:29.236Z,18.50
2018-05-24T19:41:58.117Z,15.40
2018-05-24T19:44:26.664Z,16.60
2018-05-24T19:46:58.678Z,17.33
2018-05-24T19:49:27.409Z,19.83
2018-05-24T19:51:56.557Z,22.07
2018-05-24T19:54:25.633Z,19.07
2018-05-24T19:56:54.146Z,20.50
2018-05-24T19:59:25.104Z,19.63
2018-05-24T20:01:54.700Z,19.70
2018-05-24T20:04:23.183Z,18.67
2018-05-24T20:06:53.006Z,19.57
2018-05-24T20:09:22.077Z,19.17
2018-05-24T20:11:50.810Z,18.67
2018-05-24T20:14:19.026Z,18.37
2018-05-24T20:16:47.493Z,18.73
2018-05-24T20:19:15.634Z,18.37
2018-05-24T20:21:44.890Z,17.37
2018-05-24T20:24:13.213Z,21.30
2018-05-24T20:26:41.389Z,21.70
2018-05-24T20:29:09.640Z,19.70
2018-05-24T20:31:38.679Z,20.63
2018-05-24T20:34:06.962Z,15.70
2018-05-24T20:36:35.246Z,16.57
2018-05-24T20:39:05.328Z,17.33
2018-05-24T20:41:33.507Z,15.57
2018-05-24T20:44:01.895Z,17.13
2018-05-24T20:46:30.625Z,22.27
2018-05-24T20:48:58.874Z,17.00
2018-05-24T20:51:27.008Z,15.83
2018-05-24T20:53:55.537Z,15.93
2018-05-24T20:56:23.652Z,17.87
2018-05-24T20:58:52.103Z,19.70
2018-05-24T21:01:20.367Z,18.47
2018-05-24T21:03:48.683Z,17.73
2018-05-24T21:06:16.987Z,18.80
2018-05-24T21:08:45.175Z,19.73
2018-05-24T21:11:13.241Z,20.03
2018-05-24T21:13:41.890Z,19.97
2018-05-24T21:16:10.441Z,18.23
2018-05-24T21:18:38.776Z,19.00
2018-05-24T21:21:07.261Z,21.03
2018-05-24T21:23:35.956Z,16.37
2018-05-24T21:26:04.549Z,13.90
2018-05-24T21:28:32.538Z,14.30
2018-05-24T21:31:00.838Z,12.97
2018-05-24T21:33:29.067Z,11.97
2018-05-24T21:35:57.393Z,14.27
2018-05-24T21:38:26.500Z,13.30
2018-05-24T21:40:54.729Z,13.87
2018-05-24T21:43:22.988Z,13.37
2018-05-24T21:45:51.929Z,13.73
2018-05-24T21:48:21.493Z,14.13
2018-05-24T21:50:49.754Z,13.67
2018-05-24T21:53:17.834Z,15.93
2018-05-24T21:55:46.052Z,13.63
2018-05-24T21:58:14.249Z,11.73
2018-05-24T22:00:47.109Z,15.07
2018-05-24T22:03:15.887Z,14.43
2018-05-24T22:05:44.312Z,14.90
2018-05-24T22:08:12.612Z,15.67
2018-05-24T22:10:40.900Z,14.70
2018-05-24T22:13:09.114Z,13.13
2018-05-24T22:15:37.237Z,12.73
2018-05-24T22:18:05.556Z,13.30
2018-05-24T22:20:34.521Z,13.83
2018-05-24T22:23:02.757Z,13.77
2018-05-24T22:25:30.836Z,14.47
2018-05-24T22:27:59.306Z,13.53
2018-05-24T22:30:27.465Z,14.03
2018-05-24T22:32:55.716Z,16.87
2018-05-24T22:35:24.764Z,14.43
2018-05-24T22:37:53.148Z,13.13
2018-05-24T22:40:21.628Z,12.93
2018-05-24T22:42:49.998Z,12.97
2018-05-24T22:45:19.908Z,13.23
2018-05-24T22:47:48.876Z,12.50
2018-05-24T22:50:17.787Z,14.93
2018-05-24T22:52:45.891Z,14.87
2018-05-24T22:55:13.990Z,15.60
2018-05-24T22:57:42.377Z,14.70
2018-05-24T23:00:10.501Z,14.63
2018-05-24T23:02:39.193Z,15.80
2018-05-24T23:05:07.579Z,16.27
2018-05-24T23:07:36.161Z,15.70
2018-05-24T23:10:04.525Z,16.80
2018-05-24T23:12:32.891Z,16.90
2018-05-24T23:15:01.189Z,17.57
2018-05-24T23:17:29.846Z,17.07
2018-05-24T23:20:01.978Z,16.30
2018-05-24T23:22:37.139Z,17.50
2018-05-24T23:25:05.503Z,20.90
2018-05-24T23:27:33.628Z,18.23
2018-05-24T23:30:02.294Z,18.80
2018-05-24T23:32:30.719Z,19.90
2018-05-24T23:34:59.240Z,19.30
2018-05-24T23:37:27.656Z,16.37
2018-05-24T23:39:56.367Z,18.97
2018-05-24T23:42:25.196Z,17.93
2018-05-24T23:44:53.784Z,18.73
2018-05-24T23:47:22.790Z,18.27
2018-05-24T23:49:51.266Z,16.80
2018-05-24T23:52:19.535Z,17.90
2018-05-24T23:54:48.670Z,18.53
2018-05-24T23:57:17.508Z,16.03
2018-05-24T23:59:47.081Z,15.60
